sensor_id;sensor_type;location;lat;lon;timestamp;P1;durP1;ratioP1;P2;durP2;ratioP2
12871;SDS011;6504;53.766;9.626;2023-10-31T00:02:02;8.80;;;6.90;;
12871;SDS011;6504;53.766;9.626;2023-10-31T00:04:30;6.97;;;6.37;;
12871;SDS011;6504;53.766;9.626;2023-10-31T00:06:58;6.80;;;6.20;;
12871;SDS011;6504;53.766;9.626;2023-10-31T00:09:26;6.97;;;6.37;;
12871;SDS011;6504;53.766;9.626;2023-10-31T00:11:54;6.77;;;6.17;;
12871;SDS011;6504;53.766;9.626;2023-10-31T00:14:23;7.10;;;6.50;;
12871;SDS011;6504;53.766;9.626;2023-10-31T00:16:56;7.43;;;6.63;;
12871;SDS011;6504;53.766;9.626;2023-10-31T00:19:25;7.47;;;6.37;;
12871;SDS011;6504;53.766;9.626;2023-10-31T00:21:53;6.50;;;5.90;;
12871;SDS011;6504;53.766;9.626;2023-10-31T00:24:21;6.30;;;5.53;;
12871;SDS011;6504;53.766;9.626;2023-10-31T00:26:49;7.47;;;6.27;;
12871;SDS011;6504;53.766;9.626;2023-10-31T00:29:18;6.67;;;6.07;;
12871;SDS011;6504;53.766;9.626;2023-10-31T00:31:47;7.63;;;6.30;;
12871;SDS011;6504;53.766;9.626;2023-10-31T00:34:16;6.60;;;6.03;;
12871;SDS011;6504;53.766;9.626;2023-10-31T00:36:44;7.43;;;6.73;;
12871;SDS011;6504;53.766;9.626;2023-10-31T00:39:12;6.77;;;6.17;;
12871;SDS011;6504;53.766;9.626;2023-10-31T00:41:43;7.90;;;7.10;;
12871;SDS011;6504;53.766;9.626;2023-10-31T00:44:12;7.43;;;6.73;;
12871;SDS011;6504;53.766;9.626;2023-10-31T00:46:40;7.67;;;7.00;;
12871;SDS011;6504;53.766;9.626;2023-10-31T00:49:09;7.90;;;7.13;;
12871;SDS011;6504;53.766;9.626;2023-10-31T00:51:37;7.27;;;6.67;;
12871;SDS011;6504;53.766;9.626;2023-10-31T00:54:06;8.00;;;7.23;;
12871;SDS011;6504;53.766;9.626;2023-10-31T00:56:34;7.70;;;7.00;;
12871;SDS011;6504;53.766;9.626;2023-10-31T00:59:02;7.50;;;6.90;;
12871;SDS011;6504;53.766;9.626;2023-10-31T01:01:31;8.17;;;7.33;;
12871;SDS011;6504;53.766;9.626;2023-10-31T01:03:59;8.67;;;7.83;;
12871;SDS011;6504;53.766;9.626;2023-10-31T01:06:29;7.30;;;6.60;;
12871;SDS011;6504;53.766;9.626;2023-10-31T01:08:57;7.33;;;6.73;;
12871;SDS011;6504;53.766;9.626;2023-10-31T01:11:25;6.73;;;6.23;;
12871;SDS011;6504;53.766;9.626;2023-10-31T01:13:53;7.20;;;6.60;;
12871;SDS011;6504;53.766;9.626;2023-10-31T01:16:21;8.17;;;7.47;;
12871;SDS011;6504;53.766;9.626;2023-10-31T01:18:49;9.00;;;7.63;;
12871;SDS011;6504;53.766;9.626;2023-10-31T01:21:17;8.43;;;7.63;;
12871;SDS011;6504;53.766;9.626;2023-10-31T01:23:47;7.87;;;7.10;;
12871;SDS011;6504;53.766;9.626;2023-10-31T01:26:15;7.37;;;6.77;;
12871;SDS011;6504;53.766;9.626;2023-10-31T01:28:43;8.00;;;7.20;;
12871;SDS011;6504;53.766;9.626;2023-10-31T01:31:11;7.80;;;7.10;;
12871;SDS011;6504;53.766;9.626;2023-10-31T01:33:39;7.50;;;6.90;;
12871;SDS011;6504;53.766;9.626;2023-10-31T01:36:08;7.77;;;7.10;;
12871;SDS011;6504;53.766;9.626;2023-10-31T01:38:38;7.77;;;7.07;;
12871;SDS011;6504;53.766;9.626;2023-10-31T01:41:08;8.53;;;7.73;;
12871;SDS011;6504;53.766;9.626;2023-10-31T01:43:36;8.07;;;7.37;;
12871;SDS011;6504;53.766;9.626;2023-10-31T01:46:05;9.43;;;8.57;;
12871;SDS011;6504;53.766;9.626;2023-10-31T01:48:33;7.97;;;7.37;;
12871;SDS011;6504;53.766;9.626;2023-10-31T01:51:02;8.20;;;7.50;;
12871;SDS011;6504;53.766;9.626;2023-10-31T01:53:32;8.57;;;7.60;;
12871;SDS011;6504;53.766;9.626;2023-10-31T01:56:01;8.83;;;8.03;;
12871;SDS011;6504;53.766;9.626;2023-10-31T01:58:33;9.20;;;8.30;;
12871;SDS011;6504;53.766;9.626;2023-10-31T02:01:03;9.20;;;8.40;;
12871;SDS011;6504;53.766;9.626;2023-10-31T02:03:32;9.10;;;8.30;;
12871;SDS011;6504;53.766;9.626;2023-10-31T02:06:00;9.33;;;8.50;;
12871;SDS011;6504;53.766;9.626;2023-10-31T02:08:28;9.20;;;8.40;;
12871;SDS011;6504;53.766;9.626;2023-10-31T02:10:57;9.50;;;8.70;;
12871;SDS011;6504;53.766;9.626;2023-10-31T02:13:25;10.30;;;9.40;;
12871;SDS011;6504;53.766;9.626;2023-10-31T02:15:54;9.60;;;8.80;;
12871;SDS011;6504;53.766;9.626;2023-10-31T02:18:22;9.90;;;9.00;;
12871;SDS011;6504;53.766;9.626;2023-10-31T02:20:51;10.97;;;9.87;;
12871;SDS011;6504;53.766;9.626;2023-10-31T02:23:20;9.67;;;8.73;;
12871;SDS011;6504;53.766;9.626;2023-10-31T02:25:48;10.23;;;8.87;;
12871;SDS011;6504;53.766;9.626;2023-10-31T02:28:16;9.17;;;8.27;;
12871;SDS011;6504;53.766;9.626;2023-10-31T02:30:44;9.43;;;8.57;;
12871;SDS011;6504;53.766;9.626;2023-10-31T02:33:13;9.70;;;8.90;;
12871;SDS011;6504;53.766;9.626;2023-10-31T02:35:41;9.70;;;8.90;;
12871;SDS011;6504;53.766;9.626;2023-10-31T02:38:09;10.13;;;8.33;;
12871;SDS011;6504;53.766;9.626;2023-10-31T02:40:38;8.43;;;7.73;;
12871;SDS011;6504;53.766;9.626;2023-10-31T02:43:07;9.30;;;8.50;;
12871;SDS011;6504;53.766;9.626;2023-10-31T02:45:35;8.87;;;7.97;;
12871;SDS011;6504;53.766;9.626;2023-10-31T02:48:03;8.37;;;7.63;;
12871;SDS011;6504;53.766;9.626;2023-10-31T02:50:31;8.70;;;7.90;;
12871;SDS011;6504;53.766;9.626;2023-10-31T02:53:00;7.63;;;6.90;;
12871;SDS011;6504;53.766;9.626;2023-10-31T02:55:28;7.97;;;7.27;;
12871;SDS011;6504;53.766;9.626;2023-10-31T02:57:57;8.67;;;7.33;;
12871;SDS011;6504;53.766;9.626;2023-10-31T03:00:25;7.60;;;6.90;;
12871;SDS011;6504;53.766;9.626;2023-10-31T03:02:53;7.27;;;6.57;;
12871;SDS011;6504;53.766;9.626;2023-10-31T03:05:22;7.00;;;6.40;;
12871;SDS011;6504;53.766;9.626;2023-10-31T03:07:50;6.43;;;5.83;;
12871;SDS011;6504;53.766;9.626;2023-10-31T03:10:19;6.67;;;6.07;;
12871;SDS011;6504;53.766;9.626;2023-10-31T03:12:47;6.70;;;6.10;;
12871;SDS011;6504;53.766;9.626;2023-10-31T03:15:17;7.07;;;6.47;;
12871;SDS011;6504;53.766;9.626;2023-10-31T03:17:45;7.40;;;6.70;;
12871;SDS011;6504;53.766;9.626;2023-10-31T03:20:13;6.60;;;6.10;;
12871;SDS011;6504;53.766;9.626;2023-10-31T03:22:41;6.67;;;6.07;;
12871;SDS011;6504;53.766;9.626;2023-10-31T03:25:09;6.20;;;5.70;;
12871;SDS011;6504;53.766;9.626;2023-10-31T03:27:37;6.27;;;5.77;;
12871;SDS011;6504;53.766;9.626;2023-10-31T03:30:05;7.10;;;6.53;;
12871;SDS011;6504;53.766;9.626;2023-10-31T03:32:36;7.33;;;6.63;;
12871;SDS011;6504;53.766;9.626;2023-10-31T03:35:04;7.50;;;6.80;;
12871;SDS011;6504;53.766;9.626;2023-10-31T03:37:33;7.70;;;7.00;;
12871;SDS011;6504;53.766;9.626;2023-10-31T03:40:02;6.90;;;6.30;;
12871;SDS011;6504;53.766;9.626;2023-10-31T03:42:31;7.33;;;6.73;;
12871;SDS011;6504;53.766;9.626;2023-10-31T03:44:59;6.90;;;6.30;;
12871;SDS011;6504;53.766;9.626;2023-10-31T03:47:27;6.47;;;5.97;;
12871;SDS011;6504;53.766;9.626;2023-10-31T03:49:56;7.00;;;6.37;;
12871;SDS011;6504;53.766;9.626;2023-10-31T03:52:25;6.67;;;6.10;;
12871;SDS011;6504;53.766;9.626;2023-10-31T03:54:53;7.43;;;6.73;;
12871;SDS011;6504;53.766;9.626;2023-10-31T03:57:21;6.23;;;5.73;;
12871;SDS011;6504;53.766;9.626;2023-10-31T03:59:49;6.70;;;6.10;;
12871;SDS011;6504;53.766;9.626;2023-10-31T04:02:17;7.17;;;6.53;;
12871;SDS011;6504;53.766;9.626;2023-10-31T04:04:45;7.40;;;6.70;;
12871;SDS011;6504;53.766;9.626;2023-10-31T04:07:15;6.60;;;5.97;;
12871;SDS011;6504;53.766;9.626;2023-10-31T04:09:43;6.87;;;6.27;;
12871;SDS011;6504;53.766;9.626;2023-10-31T04:12:11;7.30;;;6.70;;
12871;SDS011;6504;53.766;9.626;2023-10-31T04:14:39;7.50;;;6.80;;
12871;SDS011;6504;53.766;9.626;2023-10-31T04:17:07;7.10;;;6.50;;
12871;SDS011;6504;53.766;9.626;2023-10-31T04:19:36;7.07;;;6.47;;
12871;SDS011;6504;53.766;9.626;2023-10-31T04:22:04;7.17;;;6.57;;
12871;SDS011;6504;53.766;9.626;2023-10-31T04:24:33;7.73;;;7.03;;
12871;SDS011;6504;53.766;9.626;2023-10-31T04:27:01;8.10;;;7.40;;
12871;SDS011;6504;53.766;9.626;2023-10-31T04:29:30;8.00;;;7.30;;
12871;SDS011;6504;53.766;9.626;2023-10-31T04:31:58;8.13;;;7.43;;
12871;SDS011;6504;53.766;9.626;2023-10-31T04:34:26;7.83;;;7.13;;
12871;SDS011;6504;53.766;9.626;2023-10-31T04:36:54;7.90;;;7.20;;
12871;SDS011;6504;53.766;9.626;2023-10-31T04:39:22;7.30;;;6.63;;
12871;SDS011;6504;53.766;9.626;2023-10-31T04:41:52;7.93;;;7.23;;
12871;SDS011;6504;53.766;9.626;2023-10-31T04:44:20;8.57;;;7.77;;
12871;SDS011;6504;53.766;9.626;2023-10-31T04:46:48;9.33;;;8.43;;
12871;SDS011;6504;53.766;9.626;2023-10-31T04:49:17;9.30;;;8.50;;
12871;SDS011;6504;53.766;9.626;2023-10-31T04:51:45;9.10;;;8.20;;
12871;SDS011;6504;53.766;9.626;2023-10-31T04:54:13;8.30;;;7.60;;
12871;SDS011;6504;53.766;9.626;2023-10-31T04:56:41;9.03;;;8.23;;
12871;SDS011;6504;53.766;9.626;2023-10-31T04:59:10;8.27;;;7.57;;
12871;SDS011;6504;53.766;9.626;2023-10-31T05:01:38;9.17;;;8.37;;
12871;SDS011;6504;53.766;9.626;2023-10-31T05:04:07;9.33;;;8.53;;
12871;SDS011;6504;53.766;9.626;2023-10-31T05:06:38;9.73;;;8.83;;
12871;SDS011;6504;53.766;9.626;2023-10-31T05:09:07;9.27;;;8.47;;
12871;SDS011;6504;53.766;9.626;2023-10-31T05:11:37;9.57;;;8.67;;
12871;SDS011;6504;53.766;9.626;2023-10-31T05:14:07;9.63;;;8.83;;
12871;SDS011;6504;53.766;9.626;2023-10-31T05:16:41;8.83;;;8.03;;
12871;SDS011;6504;53.766;9.626;2023-10-31T05:19:09;9.17;;;8.37;;
12871;SDS011;6504;53.766;9.626;2023-10-31T05:21:38;9.80;;;8.90;;
12871;SDS011;6504;53.766;9.626;2023-10-31T05:24:06;9.90;;;8.90;;
12871;SDS011;6504;53.766;9.626;2023-10-31T05:26:35;9.90;;;9.00;;
12871;SDS011;6504;53.766;9.626;2023-10-31T05:29:03;8.80;;;8.00;;
12871;SDS011;6504;53.766;9.626;2023-10-31T05:31:31;10.13;;;9.20;;
12871;SDS011;6504;53.766;9.626;2023-10-31T05:34:01;9.57;;;8.63;;
12871;SDS011;6504;53.766;9.626;2023-10-31T05:36:31;9.40;;;8.50;;
12871;SDS011;6504;53.766;9.626;2023-10-31T05:38:59;9.53;;;8.60;;
12871;SDS011;6504;53.766;9.626;2023-10-31T05:41:27;11.07;;;9.97;;
12871;SDS011;6504;53.766;9.626;2023-10-31T05:43:55;9.97;;;9.03;;
12871;SDS011;6504;53.766;9.626;2023-10-31T05:46:23;11.50;;;10.20;;
12871;SDS011;6504;53.766;9.626;2023-10-31T05:48:51;10.83;;;9.63;;
12871;SDS011;6504;53.766;9.626;2023-10-31T05:51:20;12.03;;;10.73;;
12871;SDS011;6504;53.766;9.626;2023-10-31T05:53:48;13.40;;;10.63;;
12871;SDS011;6504;53.766;9.626;2023-10-31T05:56:16;15.10;;;12.07;;
12871;SDS011;6504;53.766;9.626;2023-10-31T05:58:44;14.80;;;12.07;;
12871;SDS011;6504;53.766;9.626;2023-10-31T06:01:13;16.77;;;12.30;;
12871;SDS011;6504;53.766;9.626;2023-10-31T06:03:41;15.00;;;12.07;;
12871;SDS011;6504;53.766;9.626;2023-10-31T06:06:10;16.77;;;13.13;;
12871;SDS011;6504;53.766;9.626;2023-10-31T06:08:41;18.37;;;13.60;;
12871;SDS011;6504;53.766;9.626;2023-10-31T06:11:09;18.90;;;13.87;;
12871;SDS011;6504;53.766;9.626;2023-10-31T06:13:39;19.17;;;13.43;;
12871;SDS011;6504;53.766;9.626;2023-10-31T06:16:07;18.83;;;13.53;;
12871;SDS011;6504;53.766;9.626;2023-10-31T06:18:37;16.63;;;12.77;;
12871;SDS011;6504;53.766;9.626;2023-10-31T06:21:07;21.07;;;14.60;;
12871;SDS011;6504;53.766;9.626;2023-10-31T06:23:36;21.03;;;14.70;;
12871;SDS011;6504;53.766;9.626;2023-10-31T06:26:06;17.20;;;12.80;;
12871;SDS011;6504;53.766;9.626;2023-10-31T06:28:34;17.27;;;13.13;;
12871;SDS011;6504;53.766;9.626;2023-10-31T06:31:10;17.60;;;13.07;;
12871;SDS011;6504;53.766;9.626;2023-10-31T06:33:39;18.33;;;13.30;;
12871;SDS011;6504;53.766;9.626;2023-10-31T06:36:08;17.63;;;13.47;;
12871;SDS011;6504;53.766;9.626;2023-10-31T06:38:36;17.47;;;13.10;;
12871;SDS011;6504;53.766;9.626;2023-10-31T06:41:06;17.80;;;13.67;;
12871;SDS011;6504;53.766;9.626;2023-10-31T06:43:34;18.83;;;13.87;;
12871;SDS011;6504;53.766;9.626;2023-10-31T06:46:02;18.53;;;13.60;;
12871;SDS011;6504;53.766;9.626;2023-10-31T06:48:31;18.83;;;14.10;;
12871;SDS011;6504;53.766;9.626;2023-10-31T06:51:00;20.67;;;14.30;;
12871;SDS011;6504;53.766;9.626;2023-10-31T06:53:28;18.83;;;13.70;;
12871;SDS011;6504;53.766;9.626;2023-10-31T06:55:56;17.77;;;13.93;;
12871;SDS011;6504;53.766;9.626;2023-10-31T06:58:25;18.30;;;13.53;;
12871;SDS011;6504;53.766;9.626;2023-10-31T07:00:53;16.87;;;12.97;;
12871;SDS011;6504;53.766;9.626;2023-10-31T07:03:24;19.70;;;13.83;;
12871;SDS011;6504;53.766;9.626;2023-10-31T07:05:52;19.17;;;13.47;;
12871;SDS011;6504;53.766;9.626;2023-10-31T07:08:22;19.80;;;14.50;;
12871;SDS011;6504;53.766;9.626;2023-10-31T07:10:50;17.57;;;13.00;;
12871;SDS011;6504;53.766;9.626;2023-10-31T07:13:19;18.80;;;14.00;;
12871;SDS011;6504;53.766;9.626;2023-10-31T07:15:48;19.17;;;14.23;;
12871;SDS011;6504;53.766;9.626;2023-10-31T07:18:16;19.87;;;14.00;;
12871;SDS011;6504;53.766;9.626;2023-10-31T07:20:44;17.87;;;13.13;;
12871;SDS011;6504;53.766;9.626;2023-10-31T07:23:12;17.37;;;13.40;;
12871;SDS011;6504;53.766;9.626;2023-10-31T07:25:41;17.43;;;12.23;;
12871;SDS011;6504;53.766;9.626;2023-10-31T07:28:10;18.83;;;13.30;;
12871;SDS011;6504;53.766;9.626;2023-10-31T07:30:38;20.30;;;13.27;;
12871;SDS011;6504;53.766;9.626;2023-10-31T07:33:07;18.47;;;12.97;;
12871;SDS011;6504;53.766;9.626;2023-10-31T07:35:35;16.20;;;12.30;;
12871;SDS011;6504;53.766;9.626;2023-10-31T07:38:03;18.67;;;11.97;;
12871;SDS011;6504;53.766;9.626;2023-10-31T07:40:32;14.83;;;10.83;;
12871;SDS011;6504;53.766;9.626;2023-10-31T07:43:00;14.07;;;10.30;;
12871;SDS011;6504;53.766;9.626;2023-10-31T07:45:28;13.97;;;10.47;;
12871;SDS011;6504;53.766;9.626;2023-10-31T07:47:56;13.97;;;9.50;;
12871;SDS011;6504;53.766;9.626;2023-10-31T07:50:26;13.87;;;9.60;;
12871;SDS011;6504;53.766;9.626;2023-10-31T07:52:54;14.30;;;9.63;;
12871;SDS011;6504;53.766;9.626;2023-10-31T07:55:23;13.90;;;9.70;;
12871;SDS011;6504;53.766;9.626;2023-10-31T07:57:51;12.57;;;9.17;;
12871;SDS011;6504;53.766;9.626;2023-10-31T08:00:20;12.80;;;9.17;;
12871;SDS011;6504;53.766;9.626;2023-10-31T08:02:48;14.50;;;10.07;;
12871;SDS011;6504;53.766;9.626;2023-10-31T08:05:17;13.60;;;9.63;;
12871;SDS011;6504;53.766;9.626;2023-10-31T08:07:47;14.30;;;9.70;;
12871;SDS011;6504;53.766;9.626;2023-10-31T08:10:16;14.27;;;9.80;;
12871;SDS011;6504;53.766;9.626;2023-10-31T08:12:45;15.60;;;12.13;;
12871;SDS011;6504;53.766;9.626;2023-10-31T08:15:13;13.37;;;11.03;;
12871;SDS011;6504;53.766;9.626;2023-10-31T08:17:43;14.57;;;12.90;;
12871;SDS011;6504;53.766;9.626;2023-10-31T08:20:12;12.37;;;11.13;;
12871;SDS011;6504;53.766;9.626;2023-10-31T08:22:41;11.40;;;10.30;;
12871;SDS011;6504;53.766;9.626;2023-10-31T08:25:11;10.07;;;9.07;;
12871;SDS011;6504;53.766;9.626;2023-10-31T08:27:40;9.00;;;8.20;;
12871;SDS011;6504;53.766;9.626;2023-10-31T08:30:09;6.67;;;6.07;;
12871;SDS011;6504;53.766;9.626;2023-10-31T08:32:38;4.70;;;4.30;;
12871;SDS011;6504;53.766;9.626;2023-10-31T08:35:06;4.30;;;3.90;;
12871;SDS011;6504;53.766;9.626;2023-10-31T08:37:35;3.60;;;3.30;;
12871;SDS011;6504;53.766;9.626;2023-10-31T08:40:03;3.37;;;3.07;;
12871;SDS011;6504;53.766;9.626;2023-10-31T08:42:34;3.60;;;3.30;;
12871;SDS011;6504;53.766;9.626;2023-10-31T08:45:03;4.00;;;3.70;;
12871;SDS011;6504;53.766;9.626;2023-10-31T08:47:32;4.27;;;3.97;;
12871;SDS011;6504;53.766;9.626;2023-10-31T08:50:03;4.87;;;3.90;;
12871;SDS011;6504;53.766;9.626;2023-10-31T08:52:51;4.10;;;3.70;;
12871;SDS011;6504;53.766;9.626;2023-10-31T08:55:41;3.63;;;2.97;;
12871;SDS011;6504;53.766;9.626;2023-10-31T08:58:18;2.40;;;2.20;;
12871;SDS011;6504;53.766;9.626;2023-10-31T09:01:14;1.47;;;1.37;;
12871;SDS011;6504;53.766;9.626;2023-10-31T09:03:52;0.90;;;0.90;;
12871;SDS011;6504;53.766;9.626;2023-10-31T09:06:25;1.23;;;0.70;;
12871;SDS011;6504;53.766;9.626;2023-10-31T09:08:58;0.90;;;0.90;;
12871;SDS011;6504;53.766;9.626;2023-10-31T09:11:27;0.70;;;0.50;;
12871;SDS011;6504;53.766;9.626;2023-10-31T09:14:38;0.87;;;0.40;;
12871;SDS011;6504;53.766;9.626;2023-10-31T09:17:08;0.93;;;0.47;;
12871;SDS011;6504;53.766;9.626;2023-10-31T09:19:36;0.40;;;0.40;;
12871;SDS011;6504;53.766;9.626;2023-10-31T09:22:04;0.20;;;0.20;;
12871;SDS011;6504;53.766;9.626;2023-10-31T09:24:33;1.20;;;0.30;;
12871;SDS011;6504;53.766;9.626;2023-10-31T09:27:01;0.30;;;0.30;;
12871;SDS011;6504;53.766;9.626;2023-10-31T09:29:29;0.87;;;0.60;;
12871;SDS011;6504;53.766;9.626;2023-10-31T09:31:58;1.20;;;0.50;;
12871;SDS011;6504;53.766;9.626;2023-10-31T09:34:27;0.40;;;0.40;;
12871;SDS011;6504;53.766;9.626;2023-10-31T09:36:55;0.57;;;0.50;;
12871;SDS011;6504;53.766;9.626;2023-10-31T09:39:23;1.23;;;0.70;;
12871;SDS011;6504;53.766;9.626;2023-10-31T09:41:51;1.20;;;0.90;;
12871;SDS011;6504;53.766;9.626;2023-10-31T09:44:20;2.40;;;0.70;;
12871;SDS011;6504;53.766;9.626;2023-10-31T09:46:49;1.70;;;1.00;;
12871;SDS011;6504;53.766;9.626;2023-10-31T09:49:21;1.67;;;0.90;;
12871;SDS011;6504;53.766;9.626;2023-10-31T09:51:49;0.80;;;0.80;;
12871;SDS011;6504;53.766;9.626;2023-10-31T09:54:17;2.00;;;1.00;;
12871;SDS011;6504;53.766;9.626;2023-10-31T09:56:46;1.70;;;0.90;;
12871;SDS011;6504;53.766;9.626;2023-10-31T09:59:14;1.77;;;0.90;;
12871;SDS011;6504;53.766;9.626;2023-10-31T10:01:43;1.43;;;1.00;;
12871;SDS011;6504;53.766;9.626;2023-10-31T10:04:11;2.93;;;1.47;;
12871;SDS011;6504;53.766;9.626;2023-10-31T10:06:48;2.23;;;1.23;;
12871;SDS011;6504;53.766;9.626;2023-10-31T10:09:18;1.20;;;1.10;;
12871;SDS011;6504;53.766;9.626;2023-10-31T10:11:46;2.43;;;1.67;;
12871;SDS011;6504;53.766;9.626;2023-10-31T10:14:14;3.23;;;1.40;;
12871;SDS011;6504;53.766;9.626;2023-10-31T10:16:44;1.23;;;1.10;;
12871;SDS011;6504;53.766;9.626;2023-10-31T10:19:15;1.40;;;1.30;;
12871;SDS011;6504;53.766;9.626;2023-10-31T10:21:48;2.20;;;1.20;;
12871;SDS011;6504;53.766;9.626;2023-10-31T10:24:17;3.20;;;1.73;;
12871;SDS011;6504;53.766;9.626;2023-10-31T10:26:45;3.00;;;1.30;;
12871;SDS011;6504;53.766;9.626;2023-10-31T10:29:14;1.20;;;1.00;;
12871;SDS011;6504;53.766;9.626;2023-10-31T10:31:42;1.57;;;1.30;;
12871;SDS011;6504;53.766;9.626;2023-10-31T10:34:12;1.67;;;1.30;;
12871;SDS011;6504;53.766;9.626;2023-10-31T10:36:45;1.53;;;1.43;;
12871;SDS011;6504;53.766;9.626;2023-10-31T10:39:18;1.20;;;1.10;;
12871;SDS011;6504;53.766;9.626;2023-10-31T10:41:51;3.63;;;1.33;;
12871;SDS011;6504;53.766;9.626;2023-10-31T10:44:23;1.33;;;1.03;;
12871;SDS011;6504;53.766;9.626;2023-10-31T10:46:59;0.80;;;0.80;;
12871;SDS011;6504;53.766;9.626;2023-10-31T10:49:32;1.03;;;0.97;;
12871;SDS011;6504;53.766;9.626;2023-10-31T10:52:06;1.47;;;0.90;;
12871;SDS011;6504;53.766;9.626;2023-10-31T10:54:51;1.20;;;1.10;;
12871;SDS011;6504;53.766;9.626;2023-10-31T10:57:24;1.87;;;1.77;;
12871;SDS011;6504;53.766;9.626;2023-10-31T11:00:04;2.00;;;1.90;;
12871;SDS011;6504;53.766;9.626;2023-10-31T11:02:34;3.37;;;2.33;;
12871;SDS011;6504;53.766;9.626;2023-10-31T11:05:05;2.50;;;2.30;;
12871;SDS011;6504;53.766;9.626;2023-10-31T11:07:36;2.70;;;2.50;;
12871;SDS011;6504;53.766;9.626;2023-10-31T11:10:05;3.67;;;3.47;;
12871;SDS011;6504;53.766;9.626;2023-10-31T11:12:33;2.43;;;2.30;;
12871;SDS011;6504;53.766;9.626;2023-10-31T11:15:02;5.20;;;4.90;;
12871;SDS011;6504;53.766;9.626;2023-10-31T11:17:33;4.80;;;4.50;;
12871;SDS011;6504;53.766;9.626;2023-10-31T11:20:05;4.70;;;4.30;;
12871;SDS011;6504;53.766;9.626;2023-10-31T11:22:38;5.40;;;5.00;;
12871;SDS011;6504;53.766;9.626;2023-10-31T11:25:07;3.30;;;2.97;;
12871;SDS011;6504;53.766;9.626;2023-10-31T11:27:48;9.97;;;9.13;;
12871;SDS011;6504;53.766;9.626;2023-10-31T11:30:21;8.57;;;7.87;;
12871;SDS011;6504;53.766;9.626;2023-10-31T11:32:53;3.97;;;3.67;;
12871;SDS011;6504;53.766;9.626;2023-10-31T11:35:22;2.87;;;2.57;;
12871;SDS011;6504;53.766;9.626;2023-10-31T11:38:00;5.10;;;2.50;;
12871;SDS011;6504;53.766;9.626;2023-10-31T11:40:29;3.60;;;3.30;;
12871;SDS011;6504;53.766;9.626;2023-10-31T11:43:02;2.13;;;1.93;;
12871;SDS011;6504;53.766;9.626;2023-10-31T11:45:33;6.70;;;6.10;;
12871;SDS011;6504;53.766;9.626;2023-10-31T11:48:03;3.53;;;3.20;;
12871;SDS011;6504;53.766;9.626;2023-10-31T11:50:32;2.93;;;2.50;;
12871;SDS011;6504;53.766;9.626;2023-10-31T11:53:03;2.37;;;2.10;;
12871;SDS011;6504;53.766;9.626;2023-10-31T11:55:33;1.10;;;1.00;;
12871;SDS011;6504;53.766;9.626;2023-10-31T11:58:12;1.30;;;1.20;;
12871;SDS011;6504;53.766;9.626;2023-10-31T12:00:42;2.00;;;1.90;;
12871;SDS011;6504;53.766;9.626;2023-10-31T12:03:11;2.53;;;2.33;;
12871;SDS011;6504;53.766;9.626;2023-10-31T12:05:39;2.37;;;1.40;;
12871;SDS011;6504;53.766;9.626;2023-10-31T12:08:09;1.30;;;1.20;;
12871;SDS011;6504;53.766;9.626;2023-10-31T12:10:37;1.97;;;1.77;;
12871;SDS011;6504;53.766;9.626;2023-10-31T12:13:05;2.03;;;1.20;;
12871;SDS011;6504;53.766;9.626;2023-10-31T12:15:50;1.63;;;1.33;;
12871;SDS011;6504;53.766;9.626;2023-10-31T12:18:19;1.57;;;1.33;;
12871;SDS011;6504;53.766;9.626;2023-10-31T12:20:47;2.03;;;1.40;;
12871;SDS011;6504;53.766;9.626;2023-10-31T12:23:18;1.30;;;1.20;;
12871;SDS011;6504;53.766;9.626;2023-10-31T12:25:47;1.63;;;0.90;;
12871;SDS011;6504;53.766;9.626;2023-10-31T12:28:18;1.40;;;1.30;;
12871;SDS011;6504;53.766;9.626;2023-10-31T12:30:47;1.50;;;1.17;;
12871;SDS011;6504;53.766;9.626;2023-10-31T12:33:16;2.00;;;1.70;;
12871;SDS011;6504;53.766;9.626;2023-10-31T12:35:44;4.47;;;4.17;;
12871;SDS011;6504;53.766;9.626;2023-10-31T12:38:13;5.80;;;5.40;;
12871;SDS011;6504;53.766;9.626;2023-10-31T12:40:44;7.17;;;6.57;;
12871;SDS011;6504;53.766;9.626;2023-10-31T12:43:13;8.43;;;7.70;;
12871;SDS011;6504;53.766;9.626;2023-10-31T12:45:41;8.00;;;7.30;;
12871;SDS011;6504;53.766;9.626;2023-10-31T12:48:11;8.57;;;7.77;;
12871;SDS011;6504;53.766;9.626;2023-10-31T12:50:39;9.00;;;7.87;;
12871;SDS011;6504;53.766;9.626;2023-10-31T12:53:07;6.97;;;6.37;;
12871;SDS011;6504;53.766;9.626;2023-10-31T12:55:39;5.67;;;5.17;;
12871;SDS011;6504;53.766;9.626;2023-10-31T12:58:11;7.60;;;6.63;;
12871;SDS011;6504;53.766;9.626;2023-10-31T13:00:48;7.33;;;6.63;;
12871;SDS011;6504;53.766;9.626;2023-10-31T13:03:16;5.30;;;4.80;;
12871;SDS011;6504;53.766;9.626;2023-10-31T13:05:46;3.50;;;3.20;;
12871;SDS011;6504;53.766;9.626;2023-10-31T13:08:14;3.10;;;2.80;;
12871;SDS011;6504;53.766;9.626;2023-10-31T13:10:43;3.63;;;3.33;;
12871;SDS011;6504;53.766;9.626;2023-10-31T13:13:13;4.60;;;4.20;;
12871;SDS011;6504;53.766;9.626;2023-10-31T13:15:41;5.83;;;5.33;;
12871;SDS011;6504;53.766;9.626;2023-10-31T13:18:09;5.87;;;5.37;;
12871;SDS011;6504;53.766;9.626;2023-10-31T13:20:40;4.40;;;4.10;;
12871;SDS011;6504;53.766;9.626;2023-10-31T13:23:08;4.30;;;3.90;;
12871;SDS011;6504;53.766;9.626;2023-10-31T13:25:36;4.40;;;3.17;;
12871;SDS011;6504;53.766;9.626;2023-10-31T13:28:04;1.70;;;1.60;;
12871;SDS011;6504;53.766;9.626;2023-10-31T13:30:38;2.93;;;1.63;;
12871;SDS011;6504;53.766;9.626;2023-10-31T13:33:07;2.07;;;1.87;;
12871;SDS011;6504;53.766;9.626;2023-10-31T13:35:35;2.17;;;2.07;;
12871;SDS011;6504;53.766;9.626;2023-10-31T13:38:04;2.67;;;2.47;;
12871;SDS011;6504;53.766;9.626;2023-10-31T13:40:32;4.20;;;3.00;;
12871;SDS011;6504;53.766;9.626;2023-10-31T13:43:00;6.13;;;2.60;;
12871;SDS011;6504;53.766;9.626;2023-10-31T13:45:28;2.90;;;2.60;;
12871;SDS011;6504;53.766;9.626;2023-10-31T13:47:57;1.90;;;1.80;;
12871;SDS011;6504;53.766;9.626;2023-10-31T13:50:26;1.10;;;1.00;;
12871;SDS011;6504;53.766;9.626;2023-10-31T13:52:54;1.27;;;1.17;;
12871;SDS011;6504;53.766;9.626;2023-10-31T13:55:23;2.17;;;0.90;;
12871;SDS011;6504;53.766;9.626;2023-10-31T13:57:51;1.20;;;1.10;;
12871;SDS011;6504;53.766;9.626;2023-10-31T14:00:20;1.70;;;1.60;;
12871;SDS011;6504;53.766;9.626;2023-10-31T14:02:48;2.23;;;1.43;;
12871;SDS011;6504;53.766;9.626;2023-10-31T14:05:17;2.10;;;1.37;;
12871;SDS011;6504;53.766;9.626;2023-10-31T14:07:46;2.30;;;2.07;;
12871;SDS011;6504;53.766;9.626;2023-10-31T14:10:15;2.20;;;2.00;;
12871;SDS011;6504;53.766;9.626;2023-10-31T14:12:46;3.80;;;2.13;;
12871;SDS011;6504;53.766;9.626;2023-10-31T14:15:14;3.10;;;2.53;;
12871;SDS011;6504;53.766;9.626;2023-10-31T14:17:42;2.60;;;1.70;;
12871;SDS011;6504;53.766;9.626;2023-10-31T14:20:11;2.00;;;1.80;;
12871;SDS011;6504;53.766;9.626;2023-10-31T14:22:40;2.80;;;2.43;;
12871;SDS011;6504;53.766;9.626;2023-10-31T14:25:13;2.60;;;2.30;;
12871;SDS011;6504;53.766;9.626;2023-10-31T14:27:42;3.53;;;2.93;;
12871;SDS011;6504;53.766;9.626;2023-10-31T14:30:11;3.50;;;3.20;;
12871;SDS011;6504;53.766;9.626;2023-10-31T14:32:39;3.57;;;3.27;;
12871;SDS011;6504;53.766;9.626;2023-10-31T14:35:08;5.67;;;4.07;;
12871;SDS011;6504;53.766;9.626;2023-10-31T14:37:36;2.97;;;2.67;;
12871;SDS011;6504;53.766;9.626;2023-10-31T14:40:06;2.63;;;2.10;;
12871;SDS011;6504;53.766;9.626;2023-10-31T14:42:35;3.33;;;2.00;;
12871;SDS011;6504;53.766;9.626;2023-10-31T14:45:03;2.47;;;1.60;;
12871;SDS011;6504;53.766;9.626;2023-10-31T14:47:32;2.73;;;2.13;;
12871;SDS011;6504;53.766;9.626;2023-10-31T14:50:00;2.73;;;1.67;;
12871;SDS011;6504;53.766;9.626;2023-10-31T14:52:28;2.53;;;1.90;;
12871;SDS011;6504;53.766;9.626;2023-10-31T14:54:56;3.30;;;1.40;;
12871;SDS011;6504;53.766;9.626;2023-10-31T14:57:26;1.50;;;1.40;;
12871;SDS011;6504;53.766;9.626;2023-10-31T14:59:54;3.07;;;1.87;;
12871;SDS011;6504;53.766;9.626;2023-10-31T15:02:23;3.03;;;1.60;;
12871;SDS011;6504;53.766;9.626;2023-10-31T15:04:51;1.97;;;1.60;;
12871;SDS011;6504;53.766;9.626;2023-10-31T15:07:19;1.93;;;1.10;;
12871;SDS011;6504;53.766;9.626;2023-10-31T15:09:47;1.67;;;1.27;;
12871;SDS011;6504;53.766;9.626;2023-10-31T15:12:15;1.57;;;1.20;;